createdAt,value
2022-11-17T00:00:08.478Z,6.20
2022-11-17T00:04:09.683Z,6.30
2022-11-17T00:08:12.658Z,6.20
2022-11-17T00:12:29.806Z,6.30
2022-11-17T00:16:32.582Z,6.20
2022-11-17T00:20:45.159Z,6.20
2022-11-17T00:24:48.894Z,6.20
2022-11-17T00:28:49.123Z,6.20
2022-11-17T00:33:01.638Z,6.20
2022-11-17T00:37:01.829Z,6.20
2022-11-17T00:41:04.471Z,6.20
2022-11-17T00:45:04.599Z,6.30
2022-11-17T00:49:05.555Z,6.20
2022-11-17T00:53:05.771Z,6.20
2022-11-17T00:57:08.523Z,6.20
2022-11-17T01:01:09.575Z,6.20
2022-11-17T01:05:10.912Z,6.10
2022-11-17T01:09:15.927Z,6.10
2022-11-17T01:13:20.731Z,6.10
2022-11-17T01:17:20.801Z,6.10
2022-11-17T01:21:24.089Z,6.10
2022-11-17T01:25:24.537Z,6.10
2022-11-17T01:29:27.285Z,6.10
2022-11-17T01:33:27.353Z,6.20
2022-11-17T01:37:30.034Z,6.20
2022-11-17T01:41:31.220Z,6.20
2022-11-17T01:45:34.239Z,6.20
2022-11-17T01:49:35.533Z,6.20
2022-11-17T01:53:36.795Z,6.20
2022-11-17T01:57:45.913Z,6.20
2022-11-17T02:01:58.231Z,6.10
2022-11-17T02:06:04.727Z,6.10
2022-11-17T02:10:07.120Z,6.00
2022-11-17T02:14:07.975Z,6.10
2022-11-17T02:18:10.916Z,6.00
2022-11-17T02:22:43.812Z,5.90
2022-11-17T02:27:41.485Z,5.90
2022-11-17T02:31:55.894Z,5.90
2022-11-17T02:36:07.983Z,5.90
2022-11-17T02:40:17.427Z,5.90
2022-11-17T02:44:32.600Z,5.90
2022-11-17T02:48:38.805Z,5.90
2022-11-17T02:52:39.412Z,5.90
2022-11-17T02:56:44.719Z,5.80
2022-11-17T03:01:05.351Z,5.80
2022-11-17T03:05:18.465Z,5.80
2022-11-17T03:09:31.390Z,5.80
2022-11-17T03:13:48.667Z,5.80
2022-11-17T03:18:05.794Z,5.80
2022-11-17T03:22:14.843Z,5.80
2022-11-17T03:26:22.819Z,5.80
2022-11-17T03:30:25.258Z,5.70
2022-11-17T03:34:32.801Z,5.70
2022-11-17T03:38:40.344Z,5.70
2022-11-17T03:42:44.889Z,5.70
2022-11-17T03:46:49.170Z,5.70
2022-11-17T03:50:59.991Z,5.70
2022-11-17T03:55:00.495Z,5.70
2022-11-17T03:59:06.556Z,5.70
2022-11-17T04:03:06.685Z,5.70
2022-11-17T04:07:09.419Z,5.70
2022-11-17T04:11:22.100Z,5.70
2022-11-17T04:15:34.684Z,5.70
2022-11-17T04:19:35.002Z,5.70
2022-11-17T04:23:38.059Z,5.70
2022-11-17T04:27:50.737Z,5.70
2022-11-17T04:31:50.803Z,5.70
2022-11-17T04:35:53.092Z,5.60
2022-11-17T04:39:55.704Z,5.60
2022-11-17T04:43:56.757Z,5.70
2022-11-17T04:47:56.845Z,5.70
2022-11-17T04:51:57.672Z,5.60
2022-11-17T04:56:02.943Z,5.60
2022-11-17T05:00:03.082Z,5.60
2022-11-17T05:04:05.906Z,5.60
2022-11-17T05:08:06.005Z,5.60
2022-11-17T05:12:21.963Z,5.60
2022-11-17T05:16:36.228Z,5.70
2022-11-17T05:20:36.358Z,5.60
2022-11-17T05:24:36.416Z,5.60
2022-11-17T05:28:39.113Z,5.60
2022-11-17T05:32:39.272Z,5.60
2022-11-17T05:36:39.691Z,5.60
2022-11-17T05:40:39.759Z,5.60
2022-11-17T05:44:42.672Z,5.60
2022-11-17T05:48:44.286Z,5.60
2022-11-17T05:52:44.639Z,5.70
2022-11-17T05:56:51.495Z,5.70
2022-11-17T06:00:56.339Z,5.70
2022-11-17T06:04:56.735Z,5.70
2022-11-17T06:08:57.089Z,5.70
2022-11-17T06:12:57.207Z,5.70
2022-11-17T06:17:05.158Z,5.60
2022-11-17T06:21:05.872Z,5.60
2022-11-17T06:25:08.764Z,5.60
2022-11-17T06:29:09.186Z,5.70
2022-11-17T06:33:15.677Z,5.70
2022-11-17T06:37:15.732Z,5.70
2022-11-17T06:41:16.109Z,5.70
2022-11-17T06:45:16.572Z,5.70
2022-11-17T06:49:19.364Z,5.70
2022-11-17T06:53:19.532Z,5.60
2022-11-17T06:57:19.805Z,5.70
2022-11-17T07:01:20.186Z,5.70
2022-11-17T07:05:23.113Z,5.70
2022-11-17T07:09:25.407Z,5.70
2022-11-17T07:13:27.145Z,5.70
2022-11-17T07:17:30.451Z,5.80
2022-11-17T07:21:33.553Z,5.80
2022-11-17T07:25:33.627Z,5.80
2022-11-17T07:29:33.754Z,5.80
2022-11-17T07:33:34.800Z,5.80
2022-11-17T07:37:37.766Z,5.80
2022-11-17T07:41:38.121Z,5.70
2022-11-17T07:45:38.989Z,5.70
2022-11-17T07:49:39.081Z,5.70
2022-11-17T07:53:41.805Z,5.70
2022-11-17T07:57:41.967Z,5.70
2022-11-17T08:01:42.294Z,5.80
2022-11-17T08:05:43.846Z,5.80
2022-11-17T08:09:46.677Z,5.90
2022-11-17T08:13:47.106Z,5.90
2022-11-17T08:17:47.612Z,5.90
2022-11-17T08:21:47.823Z,6.00
2022-11-17T08:25:50.764Z,5.90
2022-11-17T08:29:51.140Z,5.90
2022-11-17T08:33:51.269Z,6.00
2022-11-17T08:37:51.442Z,6.00
2022-11-17T08:41:54.645Z,6.00
2022-11-17T08:45:54.778Z,6.00
2022-11-17T08:49:54.985Z,6.00
2022-11-17T08:53:55.383Z,6.10
2022-11-17T08:57:58.221Z,6.10
2022-11-17T09:01:58.307Z,6.10
2022-11-17T09:05:58.565Z,6.10
2022-11-17T09:09:58.679Z,6.10
2022-11-17T09:14:01.699Z,6.20
2022-11-17T09:18:03.223Z,6.30
2022-11-17T09:22:03.308Z,6.40
2022-11-17T09:26:09.264Z,6.40
2022-11-17T09:30:14.477Z,6.60
2022-11-17T09:34:14.797Z,7.00
2022-11-17T09:38:15.890Z,7.20
2022-11-17T09:42:18.424Z,7.10
2022-11-17T09:46:30.551Z,7.00
2022-11-17T09:50:36.717Z,6.90
2022-11-17T09:54:46.843Z,6.90
2022-11-17T09:58:53.741Z,6.90
2022-11-17T10:02:57.944Z,7.00
2022-11-17T10:06:59.653Z,7.10
2022-11-17T10:10:59.808Z,7.30
2022-11-17T10:15:10.952Z,7.30
2022-11-17T10:19:20.571Z,7.20
2022-11-17T10:23:24.028Z,7.10
2022-11-17T10:27:28.407Z,7.10
2022-11-17T10:31:28.584Z,7.10
2022-11-17T10:35:34.218Z,7.10
2022-11-17T10:39:39.239Z,7.00
2022-11-17T10:43:42.553Z,6.90
2022-11-17T10:47:43.777Z,6.90
2022-11-17T10:51:46.837Z,6.80
2022-11-17T10:55:47.517Z,6.80
2022-11-17T10:59:56.903Z,6.90
2022-11-17T11:03:57.377Z,7.10
2022-11-17T11:08:20.987Z,7.10
2022-11-17T11:12:35.071Z,7.10
2022-11-17T11:16:35.163Z,7.20
2022-11-17T11:20:48.638Z,7.40
2022-11-17T11:25:00.875Z,7.40
2022-11-17T11:29:17.046Z,7.50
2022-11-17T11:33:36.982Z,7.50
2022-11-17T11:37:47.347Z,7.60
2022-11-17T11:42:19.607Z,7.60
2022-11-17T11:46:28.995Z,7.60
2022-11-17T11:50:37.671Z,7.60
2022-11-17T11:54:53.170Z,7.60
2022-11-17T11:59:05.484Z,7.60
2022-11-17T12:03:18.971Z,7.60
2022-11-17T12:07:29.478Z,7.70
2022-11-17T12:11:42.385Z,7.80
2022-11-17T12:15:45.540Z,7.90
2022-11-17T12:20:07.574Z,8.10
2022-11-17T12:24:21.096Z,8.20
2022-11-17T12:28:35.790Z,8.10
2022-11-17T12:32:57.645Z,8.00
2022-11-17T12:37:26.995Z,8.00
2022-11-17T12:42:06.904Z,8.10
2022-11-17T12:46:35.986Z,8.20
2022-11-17T12:50:51.759Z,8.40
2022-11-17T12:55:03.966Z,9.20
2022-11-17T12:59:35.720Z,9.50
2022-11-17T13:03:49.536Z,9.50
2022-11-17T13:07:52.854Z,9.10
2022-11-17T13:12:04.745Z,9.30
2022-11-17T13:16:05.248Z,9.90
2022-11-17T13:20:15.486Z,9.80
2022-11-17T13:24:34.018Z,9.70
2022-11-17T13:28:35.518Z,9.70
2022-11-17T13:32:35.845Z,9.60
2022-11-17T13:36:37.168Z,9.80
2022-11-17T13:40:42.448Z,10.80
2022-11-17T13:44:43.048Z,11.60
2022-11-17T13:48:45.382Z,11.70
2022-11-17T13:52:47.151Z,11.30
2022-11-17T13:56:58.998Z,10.80
2022-11-17T14:01:01.832Z,10.80
2022-11-17T14:05:26.192Z,11.00
2022-11-17T14:09:27.618Z,10.90
2022-11-17T14:13:40.152Z,10.60
2022-11-17T14:17:40.481Z,10.40
2022-11-17T14:22:02.132Z,10.10
2022-11-17T14:26:02.477Z,9.40
2022-11-17T14:30:05.340Z,8.30
2022-11-17T14:34:05.663Z,7.70
2022-11-17T14:38:06.366Z,7.50
2022-11-17T14:42:06.681Z,7.50
2022-11-17T14:46:09.536Z,7.50
2022-11-17T14:50:14.333Z,7.80
2022-11-17T14:54:14.404Z,8.00
2022-11-17T14:58:14.516Z,7.80
2022-11-17T15:02:17.188Z,7.60
2022-11-17T15:06:20.529Z,7.70
2022-11-17T15:10:21.209Z,8.00
2022-11-17T15:14:21.293Z,8.10
2022-11-17T15:18:23.987Z,7.90
2022-11-17T15:22:24.575Z,7.80
2022-11-17T15:26:25.374Z,7.70
2022-11-17T15:30:25.718Z,7.50
2022-11-17T15:34:28.478Z,7.30
2022-11-17T15:38:28.620Z,7.00
2022-11-17T15:42:28.709Z,6.90
2022-11-17T15:46:28.802Z,6.70
2022-11-17T15:50:31.579Z,6.60
2022-11-17T15:54:31.697Z,6.50
2022-11-17T15:58:31.754Z,6.40
2022-11-17T16:02:31.857Z,6.20
2022-11-17T16:06:38.464Z,6.10
2022-11-17T16:10:39.398Z,6.10
2022-11-17T16:14:39.552Z,6.20
2022-11-17T16:18:40.663Z,6.30
2022-11-17T16:22:43.440Z,6.30
2022-11-17T16:26:45.022Z,6.40
2022-11-17T16:30:45.222Z,6.40
2022-11-17T16:34:49.036Z,6.50
2022-11-17T16:39:00.781Z,6.50
2022-11-17T16:43:01.684Z,6.50
2022-11-17T16:47:01.931Z,6.50
2022-11-17T16:51:02.048Z,6.60
2022-11-17T16:55:05.535Z,6.60
2022-11-17T16:59:06.226Z,6.60
2022-11-17T17:03:07.024Z,6.60
2022-11-17T17:07:07.586Z,6.70
2022-11-17T17:11:13.126Z,6.70
2022-11-17T17:15:14.011Z,6.70
2022-11-17T17:19:18.041Z,6.70
2022-11-17T17:23:18.458Z,6.80
2022-11-17T17:27:21.259Z,6.90
2022-11-17T17:31:23.793Z,6.90
2022-11-17T17:35:23.897Z,6.90
2022-11-17T17:39:24.129Z,6.90
2022-11-17T17:43:27.068Z,7.00
2022-11-17T17:47:27.338Z,7.00
2022-11-17T17:51:29.500Z,7.00
2022-11-17T17:55:31.036Z,7.00
2022-11-17T17:59:33.770Z,7.10
2022-11-17T18:03:34.960Z,7.10
2022-11-17T18:07:35.400Z,7.10
2022-11-17T18:11:36.445Z,7.10
2022-11-17T18:15:43.118Z,7.10
2022-11-17T18:19:43.523Z,7.00
2022-11-17T18:23:44.053Z,6.90
2022-11-17T18:27:44.156Z,6.70
2022-11-17T18:31:49.521Z,6.50
2022-11-17T18:35:49.813Z,6.40
2022-11-17T18:39:50.805Z,6.30
2022-11-17T18:43:52.475Z,6.20
2022-11-17T18:47:55.255Z,6.20
2022-11-17T18:51:55.608Z,6.20
2022-11-17T18:55:55.695Z,6.20
2022-11-17T18:59:55.773Z,6.10
2022-11-17T19:04:01.232Z,6.10
2022-11-17T19:08:01.769Z,6.10
2022-11-17T19:12:04.574Z,6.10
2022-11-17T19:16:08.959Z,6.10
2022-11-17T19:20:14.130Z,6.10
2022-11-17T19:24:14.586Z,6.10
2022-11-17T19:28:16.222Z,6.10
2022-11-17T19:32:16.574Z,6.10
2022-11-17T19:36:22.002Z,6.20
2022-11-17T19:40:22.504Z,6.30
2022-11-17T19:44:22.643Z,6.40
2022-11-17T19:48:22.872Z,6.30
2022-11-17T19:52:26.695Z,6.40
2022-11-17T19:56:28.868Z,6.40
2022-11-17T20:00:29.017Z,6.50
2022-11-17T20:04:29.234Z,6.60
2022-11-17T20:08:32.771Z,6.70
2022-11-17T20:12:36.237Z,6.90
2022-11-17T20:16:38.789Z,6.90
2022-11-17T20:20:40.369Z,7.00
2022-11-17T20:24:43.166Z,7.00
2022-11-17T20:28:43.263Z,7.00
2022-11-17T20:32:43.348Z,7.10
2022-11-17T20:36:43.462Z,7.10
2022-11-17T20:40:46.215Z,7.10
2022-11-17T20:44:46.525Z,7.10
2022-11-17T20:48:46.782Z,7.10
2022-11-17T20:52:46.935Z,7.10
2022-11-17T20:56:49.925Z,7.20
2022-11-17T21:00:50.241Z,7.10
2022-11-17T21:16:07.935Z,7.10
2022-11-17T21:20:55.898Z,7.10
2022-11-17T21:25:55.706Z,7.10
2022-11-17T21:30:25.659Z,7.10
2022-11-17T21:35:54.410Z,7.10
2022-11-17T21:40:59.867Z,7.00
2022-11-17T21:46:09.521Z,7.10
2022-11-17T21:50:38.056Z,7.00
2022-11-17T21:54:39.400Z,7.00
2022-11-17T21:58:44.255Z,7.00
2022-11-17T22:02:44.399Z,6.90
2022-11-17T22:06:44.760Z,7.00
2022-11-17T22:10:45.070Z,7.00
2022-11-17T22:14:47.826Z,7.00
2022-11-17T22:18:48.002Z,7.00
2022-11-17T22:22:49.273Z,7.00
2022-11-17T22:26:51.683Z,7.00
2022-11-17T22:30:55.789Z,7.00
2022-11-17T22:34:56.361Z,7.00
2022-11-17T22:38:56.547Z,7.00
2022-11-17T22:42:56.634Z,7.00
2022-11-17T22:46:59.340Z,7.00
2022-11-17T22:51:01.334Z,7.00
2022-11-17T22:55:01.502Z,7.00
2022-11-17T22:59:01.668Z,7.00
2022-11-17T23:03:04.523Z,7.00
2022-11-17T23:07:04.751Z,7.00
2022-11-17T23:11:35.388Z,7.00
2022-11-17T23:15:26.616Z,7.00
2022-11-17T23:19:29.471Z,7.00
2022-11-17T23:23:29.581Z,7.00
2022-11-17T23:27:29.748Z,7.00
2022-11-17T23:31:30.289Z,7.00
2022-11-17T23:35:33.017Z,7.00
2022-11-17T23:39:33.553Z,7.00
2022-11-17T23:43:34.349Z,7.00
2022-11-17T23:47:34.516Z,7.00
2022-11-17T23:51:37.314Z,7.00
2022-11-17T23:55:37.463Z,7.00
2022-11-17T23:59:37.584Z,7.00
